sensor_id;sensor_type;location;lat;lon;timestamp;P1;durP1;ratioP1;P2;durP2;ratioP2
57561;SDS011;43397;51.530;5.974;2024-03-23T00:55:32;1.17;;;1.15;;
57561;SDS011;43397;51.530;5.974;2024-03-23T00:57:58;1.00;;;0.65;;
57561;SDS011;43397;51.530;5.974;2024-03-23T01:00:25;0.73;;;0.73;;
57561;SDS011;43397;51.530;5.974;2024-03-23T01:02:50;0.50;;;0.50;;
57561;SDS011;43397;51.530;5.974;2024-03-23T01:05:16;0.40;;;0.40;;
57561;SDS011;43397;51.530;5.974;2024-03-23T01:07:41;1.08;;;0.90;;
57561;SDS011;43397;51.530;5.974;2024-03-23T01:10:07;0.40;;;0.40;;
57561;SDS011;43397;51.530;5.974;2024-03-23T01:12:35;4.15;;;0.70;;
57561;SDS011;43397;51.530;5.974;2024-03-23T01:15:00;1.90;;;1.00;;
57561;SDS011;43397;51.530;5.974;2024-03-23T01:17:26;0.40;;;0.40;;
57561;SDS011;43397;51.530;5.974;2024-03-23T01:19:52;2.97;;;1.17;;
57561;SDS011;43397;51.530;5.974;2024-03-23T01:22:17;0.50;;;0.50;;
57561;SDS011;43397;51.530;5.974;2024-03-23T01:24:43;0.70;;;0.70;;
57561;SDS011;43397;51.530;5.974;2024-03-23T01:27:09;0.82;;;0.68;;
57561;SDS011;43397;51.530;5.974;2024-03-23T01:29:36;0.95;;;0.95;;
57561;SDS011;43397;51.530;5.974;2024-03-23T01:32:01;1.10;;;0.88;;
57561;SDS011;43397;51.530;5.974;2024-03-23T01:34:27;1.80;;;1.58;;
57561;SDS011;43397;51.530;5.974;2024-03-23T01:36:52;1.13;;;1.02;;
57561;SDS011;43397;51.530;5.974;2024-03-23T01:39:18;0.43;;;0.43;;
57561;SDS011;43397;51.530;5.974;2024-03-23T01:41:44;1.00;;;0.68;;
57561;SDS011;43397;51.530;5.974;2024-03-23T01:44:09;0.40;;;0.40;;
57561;SDS011;43397;51.530;5.974;2024-03-23T01:46:37;1.30;;;1.20;;
57561;SDS011;43397;51.530;5.974;2024-03-23T01:49:03;0.40;;;0.40;;
57561;SDS011;43397;51.530;5.974;2024-03-23T01:51:29;1.15;;;1.05;;
57561;SDS011;43397;51.530;5.974;2024-03-23T01:53:55;1.85;;;1.75;;
57561;SDS011;43397;51.530;5.974;2024-03-23T01:56:22;0.57;;;0.57;;
57561;SDS011;43397;51.530;5.974;2024-03-23T01:58:47;0.57;;;0.57;;
57561;SDS011;43397;51.530;5.974;2024-03-23T02:01:13;1.42;;;1.17;;
57561;SDS011;43397;51.530;5.974;2024-03-23T02:03:40;0.40;;;0.40;;
57561;SDS011;43397;51.530;5.974;2024-03-23T02:06:06;1.52;;;1.25;;
57561;SDS011;43397;51.530;5.974;2024-03-23T02:08:33;1.13;;;1.02;;
57561;SDS011;43397;51.530;5.974;2024-03-23T02:10:59;1.15;;;1.02;;
57561;SDS011;43397;51.530;5.974;2024-03-23T02:13:25;1.98;;;1.45;;
57561;SDS011;43397;51.530;5.974;2024-03-23T02:15:51;0.93;;;0.93;;
57561;SDS011;43397;51.530;5.974;2024-03-23T02:18:16;1.30;;;1.20;;
57561;SDS011;43397;51.530;5.974;2024-03-23T02:20:43;0.40;;;0.40;;
57561;SDS011;43397;51.530;5.974;2024-03-23T02:23:14;0.60;;;0.60;;
57561;SDS011;43397;51.530;5.974;2024-03-23T02:25:39;1.02;;;0.88;;
57561;SDS011;43397;51.530;5.974;2024-03-23T02:28:05;0.60;;;0.60;;
57561;SDS011;43397;51.530;5.974;2024-03-23T02:30:31;0.80;;;0.80;;
57561;SDS011;43397;51.530;5.974;2024-03-23T02:32:57;0.50;;;0.50;;
57561;SDS011;43397;51.530;5.974;2024-03-23T02:35:22;0.65;;;0.65;;
57561;SDS011;43397;51.530;5.974;2024-03-23T02:37:48;1.05;;;1.05;;
57561;SDS011;43397;51.530;5.974;2024-03-23T02:40:15;4.47;;;2.15;;
57561;SDS011;43397;51.530;5.974;2024-03-23T02:42:41;0.65;;;0.63;;
57561;SDS011;43397;51.530;5.974;2024-03-23T02:45:07;0.68;;;0.63;;
57561;SDS011;43397;51.530;5.974;2024-03-23T02:47:32;0.60;;;0.60;;
57561;SDS011;43397;51.530;5.974;2024-03-23T02:49:58;0.73;;;0.73;;
57561;SDS011;43397;51.530;5.974;2024-03-23T02:52:24;2.55;;;2.35;;
57561;SDS011;43397;51.530;5.974;2024-03-23T02:54:50;0.73;;;0.65;;
57561;SDS011;43397;51.530;5.974;2024-03-23T02:57:17;1.30;;;1.20;;
57561;SDS011;43397;51.530;5.974;2024-03-23T02:59:42;0.45;;;0.45;;
57561;SDS011;43397;51.530;5.974;2024-03-23T03:02:08;0.52;;;0.52;;
57561;SDS011;43397;51.530;5.974;2024-03-23T03:04:34;0.80;;;0.80;;
57561;SDS011;43397;51.530;5.974;2024-03-23T03:06:59;1.60;;;1.50;;
57561;SDS011;43397;51.530;5.974;2024-03-23T03:09:25;0.77;;;0.77;;
57561;SDS011;43397;51.530;5.974;2024-03-23T03:11:51;1.83;;;1.67;;
57561;SDS011;43397;51.530;5.974;2024-03-23T03:14:18;2.03;;;1.05;;
57561;SDS011;43397;51.530;5.974;2024-03-23T03:16:43;10.93;;;1.58;;
57561;SDS011;43397;51.530;5.974;2024-03-23T03:19:09;1.40;;;1.30;;
57561;SDS011;43397;51.530;5.974;2024-03-23T03:21:35;0.50;;;0.50;;
57561;SDS011;43397;51.530;5.974;2024-03-23T03:24:01;0.47;;;0.47;;
57561;SDS011;43397;51.530;5.974;2024-03-23T03:26:26;2.13;;;1.75;;
57561;SDS011;43397;51.530;5.974;2024-03-23T03:28:52;1.08;;;1.02;;
57561;SDS011;43397;51.530;5.974;2024-03-23T03:31:19;3.50;;;3.40;;
57561;SDS011;43397;51.530;5.974;2024-03-23T03:33:45;6.93;;;1.73;;
57561;SDS011;43397;51.530;5.974;2024-03-23T03:36:11;1.33;;;1.20;;
57561;SDS011;43397;51.530;5.974;2024-03-23T03:38:36;0.40;;;0.40;;
57561;SDS011;43397;51.530;5.974;2024-03-23T03:41:02;0.50;;;0.50;;
57561;SDS011;43397;51.530;5.974;2024-03-23T03:43:28;0.73;;;0.73;;
57561;SDS011;43397;51.530;5.974;2024-03-23T03:45:54;1.10;;;1.10;;
57561;SDS011;43397;51.530;5.974;2024-03-23T03:48:23;1.45;;;1.17;;
57561;SDS011;43397;51.530;5.974;2024-03-23T03:50:49;1.23;;;1.13;;
57561;SDS011;43397;51.530;5.974;2024-03-23T03:53:14;3.80;;;3.50;;
57561;SDS011;43397;51.530;5.974;2024-03-23T03:55:40;1.63;;;1.52;;
57561;SDS011;43397;51.530;5.974;2024-03-23T03:58:06;0.82;;;0.82;;
57561;SDS011;43397;51.530;5.974;2024-03-23T04:00:31;0.60;;;0.60;;
57561;SDS011;43397;51.530;5.974;2024-03-23T04:02:57;0.88;;;0.88;;
57561;SDS011;43397;51.530;5.974;2024-03-23T04:05:24;0.63;;;0.63;;
57561;SDS011;43397;51.530;5.974;2024-03-23T04:07:50;2.80;;;1.90;;
57561;SDS011;43397;51.530;5.974;2024-03-23T04:10:16;0.70;;;0.70;;
57561;SDS011;43397;51.530;5.974;2024-03-23T04:12:42;0.63;;;0.63;;
57561;SDS011;43397;51.530;5.974;2024-03-23T04:15:08;4.05;;;0.88;;
57561;SDS011;43397;51.530;5.974;2024-03-23T04:17:34;4.38;;;2.63;;
57561;SDS011;43397;51.530;5.974;2024-03-23T04:20:00;0.40;;;0.40;;
57561;SDS011;43397;51.530;5.974;2024-03-23T04:22:28;0.50;;;0.50;;
57561;SDS011;43397;51.530;5.974;2024-03-23T04:24:54;1.38;;;0.70;;
57561;SDS011;43397;51.530;5.974;2024-03-23T04:27:20;0.82;;;0.82;;
57561;SDS011;43397;51.530;5.974;2024-03-23T04:29:46;0.73;;;0.73;;
57561;SDS011;43397;51.530;5.974;2024-03-23T04:32:12;4.35;;;1.45;;
57561;SDS011;43397;51.530;5.974;2024-03-23T04:34:38;0.80;;;0.80;;
57561;SDS011;43397;51.530;5.974;2024-03-23T04:37:04;1.13;;;1.08;;
57561;SDS011;43397;51.530;5.974;2024-03-23T04:39:31;8.23;;;1.75;;
57561;SDS011;43397;51.530;5.974;2024-03-23T04:41:56;0.70;;;0.70;;
57561;SDS011;43397;51.530;5.974;2024-03-23T04:44:22;1.00;;;0.95;;
57561;SDS011;43397;51.530;5.974;2024-03-23T04:46:48;0.95;;;0.95;;
57561;SDS011;43397;51.530;5.974;2024-03-23T04:49:13;1.65;;;1.55;;
57561;SDS011;43397;51.530;5.974;2024-03-23T04:51:39;0.65;;;0.65;;
57561;SDS011;43397;51.530;5.974;2024-03-23T04:54:05;0.52;;;0.52;;
57561;SDS011;43397;51.530;5.974;2024-03-23T04:56:32;0.50;;;0.50;;
57561;SDS011;43397;51.530;5.974;2024-03-23T04:58:57;0.70;;;0.70;;
57561;SDS011;43397;51.530;5.974;2024-03-23T05:01:23;0.57;;;0.57;;
57561;SDS011;43397;51.530;5.974;2024-03-23T05:03:49;0.60;;;0.60;;
57561;SDS011;43397;51.530;5.974;2024-03-23T05:06:15;0.70;;;0.70;;
57561;SDS011;43397;51.530;5.974;2024-03-23T05:08:40;0.50;;;0.50;;
57561;SDS011;43397;51.530;5.974;2024-03-23T05:11:06;0.40;;;0.40;;
57561;SDS011;43397;51.530;5.974;2024-03-23T05:13:33;1.35;;;1.25;;
57561;SDS011;43397;51.530;5.974;2024-03-23T05:15:59;0.50;;;0.50;;
57561;SDS011;43397;51.530;5.974;2024-03-23T05:18:24;0.50;;;0.50;;
57561;SDS011;43397;51.530;5.974;2024-03-23T05:20:55;10.40;;;1.48;;
57561;SDS011;43397;51.530;5.974;2024-03-23T05:23:21;4.25;;;1.73;;
57561;SDS011;43397;51.530;5.974;2024-03-23T05:25:46;1.65;;;1.35;;
57561;SDS011;43397;51.530;5.974;2024-03-23T05:28:12;1.48;;;1.38;;
57561;SDS011;43397;51.530;5.974;2024-03-23T05:30:39;0.93;;;0.90;;
57561;SDS011;43397;51.530;5.974;2024-03-23T05:33:05;0.50;;;0.50;;
57561;SDS011;43397;51.530;5.974;2024-03-23T05:35:31;0.85;;;0.82;;
57561;SDS011;43397;51.530;5.974;2024-03-23T05:37:56;0.80;;;0.80;;
57561;SDS011;43397;51.530;5.974;2024-03-23T05:40:22;0.50;;;0.50;;
57561;SDS011;43397;51.530;5.974;2024-03-23T05:42:48;3.20;;;2.97;;
57561;SDS011;43397;51.530;5.974;2024-03-23T05:45:13;1.25;;;1.15;;
57561;SDS011;43397;51.530;5.974;2024-03-23T05:47:40;0.50;;;0.50;;
57561;SDS011;43397;51.530;5.974;2024-03-23T05:50:06;1.95;;;1.17;;
57561;SDS011;43397;51.530;5.974;2024-03-23T05:52:32;1.58;;;1.45;;
57561;SDS011;43397;51.530;5.974;2024-03-23T05:54:58;0.90;;;0.90;;
57561;SDS011;43397;51.530;5.974;2024-03-23T05:57:24;1.38;;;1.35;;
57561;SDS011;43397;51.530;5.974;2024-03-23T05:59:49;3.80;;;1.27;;
57561;SDS011;43397;51.530;5.974;2024-03-23T06:02:15;0.88;;;0.85;;
57561;SDS011;43397;51.530;5.974;2024-03-23T06:04:42;1.60;;;1.50;;
57561;SDS011;43397;51.530;5.974;2024-03-23T06:07:07;2.95;;;2.03;;
57561;SDS011;43397;51.530;5.974;2024-03-23T06:09:33;0.40;;;0.40;;
57561;SDS011;43397;51.530;5.974;2024-03-23T06:11:59;2.50;;;0.90;;
57561;SDS011;43397;51.530;5.974;2024-03-23T06:14:24;1.15;;;0.85;;
57561;SDS011;43397;51.530;5.974;2024-03-23T06:16:50;6.80;;;4.00;;
57561;SDS011;43397;51.530;5.974;2024-03-23T06:19:16;1.13;;;1.00;;
57561;SDS011;43397;51.530;5.974;2024-03-23T06:21:44;0.77;;;0.77;;
57561;SDS011;43397;51.530;5.974;2024-03-23T06:24:10;1.08;;;0.85;;
57561;SDS011;43397;51.530;5.974;2024-03-23T06:26:36;1.42;;;1.33;;
57561;SDS011;43397;51.530;5.974;2024-03-23T06:29:01;0.70;;;0.70;;
57561;SDS011;43397;51.530;5.974;2024-03-23T06:31:27;2.75;;;2.50;;
57561;SDS011;43397;51.530;5.974;2024-03-23T06:33:53;1.05;;;1.02;;
57561;SDS011;43397;51.530;5.974;2024-03-23T06:36:20;0.93;;;0.93;;
57561;SDS011;43397;51.530;5.974;2024-03-23T06:38:47;2.88;;;2.70;;
57561;SDS011;43397;51.530;5.974;2024-03-23T06:41:13;0.70;;;0.70;;
57561;SDS011;43397;51.530;5.974;2024-03-23T06:43:38;1.33;;;1.23;;
57561;SDS011;43397;51.530;5.974;2024-03-23T06:46:04;0.70;;;0.70;;
57561;SDS011;43397;51.530;5.974;2024-03-23T06:48:30;0.68;;;0.68;;
57561;SDS011;43397;51.530;5.974;2024-03-23T06:50:55;0.75;;;0.75;;
57561;SDS011;43397;51.530;5.974;2024-03-23T06:53:21;1.02;;;1.02;;
57561;SDS011;43397;51.530;5.974;2024-03-23T06:55:51;1.15;;;1.05;;
57561;SDS011;43397;51.530;5.974;2024-03-23T07:00:42;1.50;;;1.40;;
57561;SDS011;43397;51.530;5.974;2024-03-23T07:03:08;5.78;;;1.88;;
57561;SDS011;43397;51.530;5.974;2024-03-23T07:05:33;0.73;;;0.60;;
57561;SDS011;43397;51.530;5.974;2024-03-23T07:07:59;0.95;;;0.95;;
57561;SDS011;43397;51.530;5.974;2024-03-23T07:10:25;19.35;;;7.57;;
57561;SDS011;43397;51.530;5.974;2024-03-23T07:12:52;13.75;;;6.50;;
57561;SDS011;43397;51.530;5.974;2024-03-23T07:15:17;13.85;;;5.55;;
57561;SDS011;43397;51.530;5.974;2024-03-23T07:17:46;13.00;;;5.70;;
57561;SDS011;43397;51.530;5.974;2024-03-23T07:20:12;13.02;;;5.25;;
57561;SDS011;43397;51.530;5.974;2024-03-23T07:22:37;14.40;;;5.18;;
57561;SDS011;43397;51.530;5.974;2024-03-23T07:25:04;15.63;;;5.53;;
57561;SDS011;43397;51.530;5.974;2024-03-23T07:27:31;12.38;;;4.57;;
57561;SDS011;43397;51.530;5.974;2024-03-23T07:29:58;12.45;;;4.60;;
57561;SDS011;43397;51.530;5.974;2024-03-23T07:32:23;14.45;;;5.18;;
57561;SDS011;43397;51.530;5.974;2024-03-23T07:34:49;14.40;;;4.90;;
57561;SDS011;43397;51.530;5.974;2024-03-23T07:37:15;14.07;;;4.90;;
57561;SDS011;43397;51.530;5.974;2024-03-23T07:39:41;11.18;;;4.38;;
57561;SDS011;43397;51.530;5.974;2024-03-23T07:42:06;12.43;;;5.05;;
57561;SDS011;43397;51.530;5.974;2024-03-23T07:44:32;13.63;;;4.55;;
57561;SDS011;43397;51.530;5.974;2024-03-23T07:47:00;9.02;;;3.53;;
57561;SDS011;43397;51.530;5.974;2024-03-23T07:49:26;12.45;;;3.97;;
57561;SDS011;43397;51.530;5.974;2024-03-23T07:51:51;10.45;;;3.88;;
57561;SDS011;43397;51.530;5.974;2024-03-23T07:54:17;13.40;;;4.43;;
57561;SDS011;43397;51.530;5.974;2024-03-23T07:56:43;14.45;;;4.90;;
57561;SDS011;43397;51.530;5.974;2024-03-23T07:59:08;12.73;;;4.65;;
57561;SDS011;43397;51.530;5.974;2024-03-23T08:01:34;10.40;;;4.57;;
57561;SDS011;43397;51.530;5.974;2024-03-23T08:04:01;12.45;;;4.97;;
57561;SDS011;43397;51.530;5.974;2024-03-23T08:06:27;11.80;;;4.30;;
57561;SDS011;43397;51.530;5.974;2024-03-23T08:08:53;7.93;;;3.55;;
57561;SDS011;43397;51.530;5.974;2024-03-23T08:11:20;7.97;;;2.97;;
57561;SDS011;43397;51.530;5.974;2024-03-23T08:13:45;10.15;;;4.22;;
57561;SDS011;43397;51.530;5.974;2024-03-23T08:16:11;12.10;;;3.75;;
57561;SDS011;43397;51.530;5.974;2024-03-23T08:18:37;8.52;;;3.35;;
57561;SDS011;43397;51.530;5.974;2024-03-23T08:21:04;14.77;;;4.65;;
57561;SDS011;43397;51.530;5.974;2024-03-23T08:23:31;10.40;;;3.50;;
57561;SDS011;43397;51.530;5.974;2024-03-23T08:25:57;11.30;;;3.50;;
57561;SDS011;43397;51.530;5.974;2024-03-23T08:28:23;9.18;;;4.43;;
57561;SDS011;43397;51.530;5.974;2024-03-23T08:30:49;9.68;;;5.32;;
57561;SDS011;43397;51.530;5.974;2024-03-23T08:33:14;11.25;;;4.50;;
57561;SDS011;43397;51.530;5.974;2024-03-23T08:35:40;12.18;;;3.95;;
57561;SDS011;43397;51.530;5.974;2024-03-23T08:38:08;12.93;;;4.00;;
57561;SDS011;43397;51.530;5.974;2024-03-23T08:40:33;12.90;;;4.22;;
57561;SDS011;43397;51.530;5.974;2024-03-23T08:42:59;10.38;;;4.15;;
57561;SDS011;43397;51.530;5.974;2024-03-23T08:45:25;15.50;;;3.28;;
57561;SDS011;43397;51.530;5.974;2024-03-23T08:47:50;11.82;;;3.53;;
57561;SDS011;43397;51.530;5.974;2024-03-23T08:50:16;11.25;;;3.13;;
57561;SDS011;43397;51.530;5.974;2024-03-23T08:52:42;11.30;;;3.15;;
57561;SDS011;43397;51.530;5.974;2024-03-23T08:55:09;12.10;;;2.50;;
57561;SDS011;43397;51.530;5.974;2024-03-23T08:57:34;12.80;;;3.13;;
57561;SDS011;43397;51.530;5.974;2024-03-23T09:00:00;10.90;;;2.75;;
57561;SDS011;43397;51.530;5.974;2024-03-23T09:02:26;12.65;;;3.65;;
57561;SDS011;43397;51.530;5.974;2024-03-23T09:04:52;9.70;;;3.25;;
57561;SDS011;43397;51.530;5.974;2024-03-23T09:07:17;13.73;;;3.05;;
57561;SDS011;43397;51.530;5.974;2024-03-23T09:09:43;13.32;;;2.80;;
57561;SDS011;43397;51.530;5.974;2024-03-23T09:12:10;9.23;;;2.17;;
57561;SDS011;43397;51.530;5.974;2024-03-23T09:14:36;15.20;;;3.20;;
57561;SDS011;43397;51.530;5.974;2024-03-23T09:17:01;10.07;;;2.88;;
57561;SDS011;43397;51.530;5.974;2024-03-23T09:19:28;9.55;;;2.60;;
57561;SDS011;43397;51.530;5.974;2024-03-23T09:21:53;11.50;;;2.80;;
57561;SDS011;43397;51.530;5.974;2024-03-23T09:24:19;8.77;;;2.40;;
57561;SDS011;43397;51.530;5.974;2024-03-23T09:26:45;7.45;;;2.40;;
57561;SDS011;43397;51.530;5.974;2024-03-23T09:29:12;11.98;;;2.55;;
57561;SDS011;43397;51.530;5.974;2024-03-23T09:31:37;9.00;;;1.77;;
57561;SDS011;43397;51.530;5.974;2024-03-23T09:34:05;10.90;;;2.40;;
57561;SDS011;43397;51.530;5.974;2024-03-23T09:36:30;9.13;;;2.65;;
57561;SDS011;43397;51.530;5.974;2024-03-23T09:38:56;5.15;;;1.55;;
57561;SDS011;43397;51.530;5.974;2024-03-23T09:41:21;3.08;;;0.95;;
57561;SDS011;43397;51.530;5.974;2024-03-23T09:43:47;3.83;;;1.00;;
57561;SDS011;43397;51.530;5.974;2024-03-23T09:46:14;1.40;;;0.77;;
57561;SDS011;43397;51.530;5.974;2024-03-23T09:48:40;4.97;;;0.70;;
57561;SDS011;43397;51.530;5.974;2024-03-23T09:51:08;1.15;;;0.63;;
57561;SDS011;43397;51.530;5.974;2024-03-23T09:53:33;2.45;;;0.90;;
57561;SDS011;43397;51.530;5.974;2024-03-23T09:55:59;1.60;;;0.73;;
57561;SDS011;43397;51.530;5.974;2024-03-23T09:58:25;1.92;;;0.80;;
57561;SDS011;43397;51.530;5.974;2024-03-23T10:00:50;4.32;;;1.00;;
57561;SDS011;43397;51.530;5.974;2024-03-23T10:03:17;7.05;;;1.55;;
57561;SDS011;43397;51.530;5.974;2024-03-23T10:05:43;6.28;;;1.70;;
57561;SDS011;43397;51.530;5.974;2024-03-23T10:10:54;5.15;;;1.55;;
57561;SDS011;43397;51.530;5.974;2024-03-23T10:13:26;6.63;;;2.47;;
57561;SDS011;43397;51.530;5.974;2024-03-23T10:15:56;4.95;;;1.38;;
57561;SDS011;43397;51.530;5.974;2024-03-23T10:18:24;7.63;;;2.00;;
57561;SDS011;43397;51.530;5.974;2024-03-23T10:21:06;6.40;;;1.75;;
57561;SDS011;43397;51.530;5.974;2024-03-23T10:23:32;8.23;;;2.08;;
57561;SDS011;43397;51.530;5.974;2024-03-23T10:26:02;7.78;;;1.70;;
57561;SDS011;43397;51.530;5.974;2024-03-23T10:31:15;8.73;;;2.63;;
57561;SDS011;43397;51.530;5.974;2024-03-23T10:33:45;5.97;;;1.70;;
57561;SDS011;43397;51.530;5.974;2024-03-23T10:36:11;9.50;;;2.05;;
57561;SDS011;43397;51.530;5.974;2024-03-23T10:38:37;5.55;;;1.48;;
57561;SDS011;43397;51.530;5.974;2024-03-23T10:41:05;6.65;;;1.75;;
57561;SDS011;43397;51.530;5.974;2024-03-23T10:43:31;11.63;;;3.33;;
57561;SDS011;43397;51.530;5.974;2024-03-23T10:45:58;7.60;;;2.50;;
57561;SDS011;43397;51.530;5.974;2024-03-23T10:48:24;8.80;;;2.03;;
57561;SDS011;43397;51.530;5.974;2024-03-23T10:50:51;6.55;;;1.95;;
57561;SDS011;43397;51.530;5.974;2024-03-23T10:53:18;4.90;;;1.35;;
57561;SDS011;43397;51.530;5.974;2024-03-23T10:55:44;3.58;;;1.27;;
57561;SDS011;43397;51.530;5.974;2024-03-23T10:58:10;4.45;;;2.00;;
57561;SDS011;43397;51.530;5.974;2024-03-23T11:00:37;5.60;;;1.67;;
57561;SDS011;43397;51.530;5.974;2024-03-23T11:03:16;6.78;;;1.63;;
57561;SDS011;43397;51.530;5.974;2024-03-23T11:05:56;5.53;;;1.83;;
57561;SDS011;43397;51.530;5.974;2024-03-23T11:08:29;7.72;;;1.85;;
57561;SDS011;43397;51.530;5.974;2024-03-23T11:11:11;7.72;;;1.83;;
57561;SDS011;43397;51.530;5.974;2024-03-23T11:13:37;5.72;;;1.65;;
57561;SDS011;43397;51.530;5.974;2024-03-23T11:16:12;4.13;;;1.50;;
57561;SDS011;43397;51.530;5.974;2024-03-23T11:18:39;4.28;;;1.10;;
57561;SDS011;43397;51.530;5.974;2024-03-23T11:21:06;2.47;;;0.98;;
57561;SDS011;43397;51.530;5.974;2024-03-23T11:23:31;3.40;;;0.93;;
57561;SDS011;43397;51.530;5.974;2024-03-23T11:25:57;3.65;;;1.50;;
57561;SDS011;43397;51.530;5.974;2024-03-23T11:28:23;5.20;;;1.13;;
57561;SDS011;43397;51.530;5.974;2024-03-23T11:30:48;4.45;;;1.17;;
57561;SDS011;43397;51.530;5.974;2024-03-23T11:33:14;4.72;;;1.30;;
57561;SDS011;43397;51.530;5.974;2024-03-23T11:35:41;6.35;;;1.38;;
57561;SDS011;43397;51.530;5.974;2024-03-23T11:38:09;6.57;;;1.45;;
57561;SDS011;43397;51.530;5.974;2024-03-23T11:40:35;5.03;;;1.70;;
57561;SDS011;43397;51.530;5.974;2024-03-23T11:43:02;8.88;;;1.80;;
57561;SDS011;43397;51.530;5.974;2024-03-23T11:45:33;6.55;;;1.83;;
57561;SDS011;43397;51.530;5.974;2024-03-23T11:48:06;5.10;;;1.67;;
57561;SDS011;43397;51.530;5.974;2024-03-23T11:50:33;6.22;;;1.95;;
57561;SDS011;43397;51.530;5.974;2024-03-23T11:53:06;6.72;;;2.00;;
57561;SDS011;43397;51.530;5.974;2024-03-23T11:55:43;8.68;;;2.45;;
57561;SDS011;43397;51.530;5.974;2024-03-23T11:58:11;7.70;;;2.65;;
57561;SDS011;43397;51.530;5.974;2024-03-23T12:00:37;9.07;;;2.90;;
57561;SDS011;43397;51.530;5.974;2024-03-23T12:03:03;11.40;;;2.80;;
57561;SDS011;43397;51.530;5.974;2024-03-23T12:05:30;7.57;;;2.30;;
57561;SDS011;43397;51.530;5.974;2024-03-23T12:07:56;10.60;;;3.10;;
57561;SDS011;43397;51.530;5.974;2024-03-23T12:10:43;5.90;;;1.90;;
57561;SDS011;43397;51.530;5.974;2024-03-23T12:13:10;6.95;;;2.28;;
57561;SDS011;43397;51.530;5.974;2024-03-23T12:15:35;5.93;;;2.10;;
57561;SDS011;43397;51.530;5.974;2024-03-23T12:18:07;7.63;;;2.10;;
57561;SDS011;43397;51.530;5.974;2024-03-23T12:20:33;5.40;;;2.25;;
57561;SDS011;43397;51.530;5.974;2024-03-23T12:23:04;2.45;;;1.00;;
57561;SDS011;43397;51.530;5.974;2024-03-23T12:25:32;2.97;;;1.00;;
57561;SDS011;43397;51.530;5.974;2024-03-23T12:27:58;4.22;;;1.25;;
57561;SDS011;43397;51.530;5.974;2024-03-23T12:30:24;2.83;;;1.08;;
57561;SDS011;43397;51.530;5.974;2024-03-23T12:32:50;4.38;;;1.23;;
57561;SDS011;43397;51.530;5.974;2024-03-23T12:35:15;4.55;;;1.17;;
57561;SDS011;43397;51.530;5.974;2024-03-23T12:37:41;5.65;;;1.23;;
57561;SDS011;43397;51.530;5.974;2024-03-23T12:40:07;3.42;;;0.95;;
57561;SDS011;43397;51.530;5.974;2024-03-23T12:42:35;5.20;;;1.50;;
57561;SDS011;43397;51.530;5.974;2024-03-23T12:45:00;5.90;;;0.82;;
57561;SDS011;43397;51.530;5.974;2024-03-23T12:47:26;4.80;;;1.02;;
57561;SDS011;43397;51.530;5.974;2024-03-23T12:49:51;7.45;;;1.33;;
57561;SDS011;43397;51.530;5.974;2024-03-23T12:52:17;5.70;;;1.17;;
57561;SDS011;43397;51.530;5.974;2024-03-23T12:54:43;2.70;;;1.48;;
57561;SDS011;43397;51.530;5.974;2024-03-23T12:57:09;4.25;;;1.33;;
57561;SDS011;43397;51.530;5.974;2024-03-23T12:59:35;5.45;;;1.90;;
57561;SDS011;43397;51.530;5.974;2024-03-23T13:02:01;8.05;;;2.33;;
57561;SDS011;43397;51.530;5.974;2024-03-23T13:04:27;6.32;;;1.30;;
57561;SDS011;43397;51.530;5.974;2024-03-23T13:06:53;3.70;;;1.10;;
57561;SDS011;43397;51.530;5.974;2024-03-23T13:09:18;6.38;;;1.30;;
57561;SDS011;43397;51.530;5.974;2024-03-23T13:11:44;7.47;;;1.50;;
57561;SDS011;43397;51.530;5.974;2024-03-23T13:14:10;5.57;;;1.70;;
57561;SDS011;43397;51.530;5.974;2024-03-23T13:16:37;3.08;;;1.20;;
57561;SDS011;43397;51.530;5.974;2024-03-23T13:19:03;5.57;;;1.70;;
57561;SDS011;43397;51.530;5.974;2024-03-23T13:21:28;8.50;;;1.77;;
57561;SDS011;43397;51.530;5.974;2024-03-23T13:23:54;4.60;;;1.83;;
57561;SDS011;43397;51.530;5.974;2024-03-23T13:26:19;4.38;;;1.27;;
57561;SDS011;43397;51.530;5.974;2024-03-23T13:28:45;4.20;;;1.10;;
57561;SDS011;43397;51.530;5.974;2024-03-23T13:31:11;4.28;;;1.25;;
57561;SDS011;43397;51.530;5.974;2024-03-23T13:33:38;6.28;;;1.08;;
57561;SDS011;43397;51.530;5.974;2024-03-23T13:36:04;6.78;;;1.05;;
57561;SDS011;43397;51.530;5.974;2024-03-23T13:38:30;3.10;;;0.93;;
57561;SDS011;43397;51.530;5.974;2024-03-23T13:40:56;7.38;;;1.35;;
57561;SDS011;43397;51.530;5.974;2024-03-23T13:43:22;6.53;;;1.40;;
57561;SDS011;43397;51.530;5.974;2024-03-23T13:45:49;4.63;;;1.58;;
57561;SDS011;43397;51.530;5.974;2024-03-23T13:50:45;4.18;;;1.20;;
57561;SDS011;43397;51.530;5.974;2024-03-23T13:53:11;2.83;;;0.98;;
57561;SDS011;43397;51.530;5.974;2024-03-23T13:55:36;4.68;;;1.52;;
57561;SDS011;43397;51.530;5.974;2024-03-23T13:58:02;7.15;;;1.60;;
57561;SDS011;43397;51.530;5.974;2024-03-23T14:00:28;4.28;;;1.65;;
57561;SDS011;43397;51.530;5.974;2024-03-23T14:02:53;8.85;;;1.50;;
57561;SDS011;43397;51.530;5.974;2024-03-23T14:05:19;5.95;;;1.42;;
57561;SDS011;43397;51.530;5.974;2024-03-23T14:07:46;8.05;;;1.80;;
57561;SDS011;43397;51.530;5.974;2024-03-23T14:10:12;6.80;;;1.55;;
57561;SDS011;43397;51.530;5.974;2024-03-23T14:12:37;7.95;;;2.17;;
57561;SDS011;43397;51.530;5.974;2024-03-23T14:15:05;3.35;;;1.27;;
57561;SDS011;43397;51.530;5.974;2024-03-23T14:17:31;3.33;;;1.10;;
57561;SDS011;43397;51.530;5.974;2024-03-23T14:19:56;5.05;;;1.25;;
57561;SDS011;43397;51.530;5.974;2024-03-23T14:22:22;7.03;;;1.30;;
57561;SDS011;43397;51.530;5.974;2024-03-23T14:24:49;5.07;;;1.27;;
57561;SDS011;43397;51.530;5.974;2024-03-23T14:27:15;8.20;;;1.70;;
57561;SDS011;43397;51.530;5.974;2024-03-23T14:29:40;4.70;;;1.20;;
57561;SDS011;43397;51.530;5.974;2024-03-23T14:32:06;7.75;;;1.35;;
57561;SDS011;43397;51.530;5.974;2024-03-23T14:34:32;5.45;;;1.33;;
57561;SDS011;43397;51.530;5.974;2024-03-23T14:36:57;5.15;;;1.70;;
57561;SDS011;43397;51.530;5.974;2024-03-23T14:39:23;5.22;;;1.60;;
57561;SDS011;43397;51.530;5.974;2024-03-23T14:41:51;8.15;;;1.60;;
57561;SDS011;43397;51.530;5.974;2024-03-23T14:44:16;8.63;;;2.00;;
57561;SDS011;43397;51.530;5.974;2024-03-23T14:46:42;9.70;;;1.83;;
57561;SDS011;43397;51.530;5.974;2024-03-23T14:49:08;5.15;;;1.77;;
57561;SDS011;43397;51.530;5.974;2024-03-23T14:51:33;7.60;;;2.13;;
57561;SDS011;43397;51.530;5.974;2024-03-23T14:53:59;4.70;;;1.40;;
57561;SDS011;43397;51.530;5.974;2024-03-23T14:56:25;3.75;;;1.70;;
57561;SDS011;43397;51.530;5.974;2024-03-23T14:58:53;6.95;;;1.95;;
57561;SDS011;43397;51.530;5.974;2024-03-23T15:01:19;6.22;;;1.80;;
57561;SDS011;43397;51.530;5.974;2024-03-23T15:03:44;6.88;;;2.38;;
57561;SDS011;43397;51.530;5.974;2024-03-23T15:06:10;8.43;;;2.50;;
57561;SDS011;43397;51.530;5.974;2024-03-23T15:08:36;5.80;;;2.10;;
57561;SDS011;43397;51.530;5.974;2024-03-23T15:11:01;6.78;;;2.30;;
57561;SDS011;43397;51.530;5.974;2024-03-23T15:13:27;9.50;;;2.08;;
57561;SDS011;43397;51.530;5.974;2024-03-23T15:15:54;5.70;;;1.83;;
57561;SDS011;43397;51.530;5.974;2024-03-23T15:18:20;6.32;;;1.70;;
57561;SDS011;43397;51.530;5.974;2024-03-23T15:20:51;4.32;;;1.73;;
57561;SDS011;43397;51.530;5.974;2024-03-23T15:23:17;7.18;;;1.65;;
57561;SDS011;43397;51.530;5.974;2024-03-23T15:25:43;7.60;;;2.00;;
57561;SDS011;43397;51.530;5.974;2024-03-23T15:28:09;5.55;;;2.13;;
57561;SDS011;43397;51.530;5.974;2024-03-23T15:30:34;6.70;;;1.30;;
57561;SDS011;43397;51.530;5.974;2024-03-23T15:33:01;10.02;;;1.70;;
57561;SDS011;43397;51.530;5.974;2024-03-23T15:35:27;4.40;;;1.33;;
57561;SDS011;43397;51.530;5.974;2024-03-23T15:37:53;4.82;;;1.40;;
57561;SDS011;43397;51.530;5.974;2024-03-23T15:40:18;4.30;;;1.20;;
57561;SDS011;43397;51.530;5.974;2024-03-23T15:42:44;5.80;;;1.50;;
57561;SDS011;43397;51.530;5.974;2024-03-23T15:45:10;6.38;;;1.70;;